Time;durP1;ratioP1;P1;durP2;ratioP2;P2;SDS_P1;SDS_P2;PMS_P1;PMS_P2;Temp;Humidity;BMP_temperature;BMP_pressure;BME280_temperature;BME280_humidity;BME280_pressure;Samples;Min_cycle;Max_cycle;Signal;HPM_P1;HPM_P2
2021/01/12 00:00:42;;;;;;;20.20;13.07;;;;;;;-1.64;62.99;95752.88;5086015;28;20301;-79
2021/01/12 00:03:08;;;;;;;18.33;13.27;;;;;;;-1.73;62.49;95747.47;5094490;28;20204;-78
2021/01/12 00:05:34;;;;;;;19.17;12.53;;;;;;;-1.75;62.98;95748.50;5083736;28;20221;-79
2021/01/12 00:08:00;;;;;;;20.33;13.57;;;;;;;-1.68;62.44;95746.38;5085428;28;20224;-79
2021/01/12 00:10:26;;;;;;;18.50;13.67;;;;;;;-1.73;62.24;95746.66;5085832;28;20197;-80
2021/01/12 00:12:52;;;;;;;17.40;12.90;;;;;;;-1.75;62.68;95746.81;5074296;28;20568;-79
2021/01/12 00:15:19;;;;;;;18.97;13.90;;;;;;;-1.72;62.49;95748.28;5080757;28;20629;-80
2021/01/12 00:17:46;;;;;;;19.00;13.90;;;;;;;-1.70;62.31;95748.19;5084918;28;20217;-79
2021/01/12 00:20:12;;;;;;;17.83;12.73;;;;;;;-1.73;62.14;95736.56;5078993;28;20188;-79
2021/01/12 00:22:39;;;;;;;18.17;13.00;;;;;;;-1.77;62.46;95733.47;5094752;28;20261;-79
2021/01/12 00:25:07;;;;;;;17.77;13.07;;;;;;;-1.75;62.17;95720.75;5089887;28;20186;-79
2021/01/12 00:27:32;;;;;;;19.63;14.03;;;;;;;-1.75;62.46;95714.00;5080373;28;20216;-79
2021/01/12 00:29:59;;;;;;;17.40;13.30;;;;;;;-1.75;62.59;95710.66;5090917;28;20240;-80
2021/01/12 00:32:27;;;;;;;19.47;13.20;;;;;;;-1.85;62.64;95700.34;5073410;28;20197;-79
2021/01/12 00:34:55;;;;;;;17.40;13.47;;;;;;;-1.76;62.53;95707.31;5074253;28;20228;-80
2021/01/12 00:37:22;;;;;;;17.60;12.20;;;;;;;-1.70;62.33;95711.16;5087459;28;20217;-78
2021/01/12 00:39:48;;;;;;;16.77;13.27;;;;;;;-1.62;62.83;95716.53;5073126;28;20212;-79
2021/01/12 00:42:15;;;;;;;18.17;12.73;;;;;;;-1.63;62.28;95725.00;5093005;28;20199;-80
2021/01/12 00:44:41;;;;;;;16.93;12.57;;;;;;;-1.67;61.93;95735.38;5091041;28;20204;-79
2021/01/12 00:47:07;;;;;;;16.43;12.93;;;;;;;-1.63;62.10;95742.66;5074722;28;20754;-80
2021/01/12 00:49:34;;;;;;;16.67;11.93;;;;;;;-1.65;62.21;95746.19;5092488;28;20289;-79
2021/01/12 00:52:01;;;;;;;18.67;13.03;;;;;;;-1.66;62.22;95747.09;5090567;28;20188;-79
2021/01/12 00:54:27;;;;;;;16.23;12.23;;;;;;;-1.64;61.95;95732.66;5080477;28;20201;-79
2021/01/12 00:56:54;;;;;;;15.13;11.97;;;;;;;-1.62;61.80;95740.94;5071713;28;20323;-79
2021/01/12 00:59:21;;;;;;;17.97;12.97;;;;;;;-1.63;61.89;95736.81;5091921;28;20724;-79
2021/01/12 01:01:49;;;;;;;15.57;12.40;;;;;;;-1.67;61.68;95735.38;5078719;28;20197;-79
2021/01/12 01:04:16;;;;;;;17.63;12.97;;;;;;;-1.66;62.18;95734.47;5071876;28;20200;-79
2021/01/12 01:06:43;;;;;;;17.87;12.00;;;;;;;-1.66;61.59;95726.91;5087817;28;20208;-79
2021/01/12 01:09:12;;;;;;;19.20;12.90;;;;;;;-1.72;61.73;95718.00;5072741;28;20369;-79
2021/01/12 01:11:42;;;;;;;17.40;12.60;;;;;;;-1.65;62.07;95715.91;5086607;28;20249;-79
2021/01/12 01:14:08;;;;;;;16.00;12.00;;;;;;;-1.64;62.05;95717.53;5086605;28;20207;-79
2021/01/12 01:16:35;;;;;;;16.33;12.23;;;;;;;-1.62;61.70;95720.75;5091687;28;20241;-79
2021/01/12 01:19:01;;;;;;;16.70;12.00;;;;;;;-1.62;61.69;95726.63;5087293;28;20570;-79
2021/01/12 01:21:27;;;;;;;17.07;12.53;;;;;;;-1.62;61.50;95728.34;5092108;28;20218;-79
2021/01/12 01:23:54;;;;;;;17.37;12.43;;;;;;;-1.54;62.00;95736.22;5076180;28;20199;-79
2021/01/12 01:26:21;;;;;;;17.73;12.03;;;;;;;-1.49;62.00;95734.19;5071013;28;20963;-79
2021/01/12 01:28:47;;;;;;;19.97;12.73;;;;;;;-1.47;61.19;95729.84;5085341;28;20287;-79
2021/01/12 01:31:13;;;;;;;15.67;11.93;;;;;;;-1.48;61.47;95726.53;5091388;28;20200;-80
2021/01/12 01:33:39;;;;;;;16.17;12.13;;;;;;;-1.56;61.65;95733.81;5074832;28;20254;-80
2021/01/12 01:36:09;;;;;;;16.40;12.63;;;;;;;-1.52;61.73;95727.63;5080769;28;20618;-80
2021/01/12 01:38:34;;;;;;;17.77;12.60;;;;;;;-1.48;61.74;95728.25;5078496;28;20204;-79
2021/01/12 01:41:01;;;;;;;16.23;11.63;;;;;;;-1.40;61.72;95731.09;5079861;28;20823;-78
2021/01/12 01:43:27;;;;;;;18.23;12.17;;;;;;;-1.36;61.35;95736.75;5090844;28;20203;-79
2021/01/12 01:45:54;;;;;;;17.57;12.50;;;;;;;-1.31;61.91;95734.72;5083403;28;20263;-79
2021/01/12 01:48:20;;;;;;;17.90;12.47;;;;;;;-1.30;61.32;95737.13;5080456;28;20196;-79
2021/01/12 01:50:47;;;;;;;17.13;12.27;;;;;;;-1.26;61.34;95742.81;5085590;28;20203;-79
2021/01/12 01:53:14;;;;;;;17.03;12.40;;;;;;;-1.23;61.77;95742.59;5071115;28;20227;-79
2021/01/12 01:55:40;;;;;;;17.13;12.63;;;;;;;-1.19;61.47;95742.31;5074043;28;20216;-79
2021/01/12 01:58:08;;;;;;;16.53;11.70;;;;;;;-1.18;61.53;95743.94;5082607;28;20207;-79
2021/01/12 02:00:36;;;;;;;16.23;12.00;;;;;;;-1.23;61.85;95753.53;5073467;28;20211;-79
2021/01/12 02:03:08;;;;;;;19.50;12.37;;;;;;;-1.20;61.67;95752.50;5090552;28;20199;-79
2021/01/12 02:05:39;;;;;;;15.67;11.80;;;;;;;-1.20;61.48;95738.16;5070122;28;20204;-79
2021/01/12 02:08:09;;;;;;;16.60;12.37;;;;;;;-1.22;61.57;95726.53;5080923;28;20207;-79
2021/01/12 02:10:40;;;;;;;16.13;12.17;;;;;;;-1.17;61.48;95724.53;5084550;28;20252;-79
2021/01/12 02:13:10;;;;;;;14.77;11.03;;;;;;;-1.14;61.27;95721.78;5091013;28;20231;-79
2021/01/12 02:15:39;;;;;;;17.00;12.43;;;;;;;-1.14;61.71;95714.19;5080397;28;20254;-78
2021/01/12 02:18:07;;;;;;;15.70;12.07;;;;;;;-1.21;61.53;95711.28;5080636;28;20294;-79
2021/01/12 02:20:33;;;;;;;16.00;11.53;;;;;;;-1.20;61.75;95704.53;5088436;28;20192;-79
2021/01/12 02:23:05;;;;;;;16.20;11.77;;;;;;;-1.19;61.62;95694.31;5088917;28;20202;-79
2021/01/12 02:25:34;;;;;;;14.80;11.93;;;;;;;-1.33;61.97;95684.31;5090340;28;20199;-79
2021/01/12 02:28:01;;;;;;;17.53;11.13;;;;;;;-1.43;61.95;95685.84;5088715;28;20673;-80
2021/01/12 02:30:27;;;;;;;15.57;11.40;;;;;;;-1.37;62.36;95677.88;5090310;28;20200;-79
2021/01/12 02:32:54;;;;;;;15.03;11.37;;;;;;;-1.28;61.76;95669.66;5080894;28;20346;-79
2021/01/12 02:35:23;;;;;;;13.30;10.57;;;;;;;-1.26;62.08;95667.03;5069780;28;20311;-79
2021/01/12 02:37:50;;;;;;;15.77;11.83;;;;;;;-1.23;61.83;95655.00;5077019;28;20220;-79
2021/01/12 02:40:16;;;;;;;16.67;12.20;;;;;;;-1.24;61.54;95653.41;5080377;28;20208;-79
2021/01/12 02:42:43;;;;;;;15.37;11.37;;;;;;;-1.22;61.61;95659.16;5090291;28;20293;-79
2021/01/12 02:45:10;;;;;;;14.77;11.67;;;;;;;-1.24;61.42;95655.94;5080669;28;20181;-79
2021/01/12 02:47:36;;;;;;;14.30;11.57;;;;;;;-1.20;61.49;95659.06;5076765;28;20216;-79
2021/01/12 02:50:02;;;;;;;14.23;11.17;;;;;;;-1.23;61.47;95667.66;5069722;28;20703;-79
2021/01/12 02:52:28;;;;;;;14.50;11.10;;;;;;;-1.22;61.35;95659.16;5074706;28;20218;-79
2021/01/12 02:54:54;;;;;;;17.10;11.13;;;;;;;-1.21;61.42;95665.81;5089740;28;20194;-79
2021/01/12 02:57:20;;;;;;;15.33;10.90;;;;;;;-1.11;61.22;95666.00;5085070;28;20279;-79
2021/01/12 02:59:47;;;;;;;15.47;11.60;;;;;;;-1.13;61.00;95670.34;5069778;28;20203;-79
2021/01/12 03:02:12;;;;;;;15.57;11.30;;;;;;;-1.07;61.29;95673.28;5081374;28;20200;-78
2021/01/12 03:04:38;;;;;;;13.47;10.17;;;;;;;-1.08;60.81;95663.28;5085025;28;20197;-79
2021/01/12 03:07:04;;;;;;;14.57;10.90;;;;;;;-1.06;60.75;95666.50;5070681;28;20723;-79
2021/01/12 03:09:30;;;;;;;14.73;11.17;;;;;;;-1.06;61.20;95654.69;5090274;28;20219;-79
2021/01/12 03:11:56;;;;;;;13.70;11.20;;;;;;;-1.05;60.85;95646.19;5080198;28;20204;-79
2021/01/12 03:14:23;;;;;;;15.13;11.40;;;;;;;-0.97;61.08;95649.94;5069263;28;20199;-79
2021/01/12 03:16:51;;;;;;;14.17;11.17;;;;;;;-0.92;60.56;95645.34;5076727;28;20214;-79
2021/01/12 03:19:17;;;;;;;13.37;10.60;;;;;;;-0.94;60.63;95639.59;5069446;28;20193;-79
2021/01/12 03:21:43;;;;;;;15.40;11.33;;;;;;;-0.90;60.59;95624.13;5079328;28;20222;-80
2021/01/12 03:24:10;;;;;;;15.30;11.00;;;;;;;-0.86;60.52;95623.00;5089503;28;20666;-79
2021/01/12 03:26:36;;;;;;;15.97;12.13;;;;;;;-0.87;60.34;95618.03;5080957;28;20258;-79
2021/01/12 03:29:02;;;;;;;15.93;11.80;;;;;;;-0.87;60.63;95610.47;5087747;28;20203;-79
2021/01/12 03:31:28;;;;;;;13.00;10.70;;;;;;;-0.93;60.27;95605.81;5082388;28;20282;-79
2021/01/12 03:33:55;;;;;;;15.37;11.30;;;;;;;-0.88;60.71;95604.59;5069206;28;20668;-79
2021/01/12 03:36:21;;;;;;;15.90;11.77;;;;;;;-0.88;60.17;95609.66;5074170;28;20687;-79
2021/01/12 03:38:48;;;;;;;15.43;11.27;;;;;;;-0.89;60.01;95600.47;5073715;28;20270;-78
2021/01/12 03:41:14;;;;;;;15.23;11.03;;;;;;;-0.89;60.01;95592.88;5073353;28;20199;-79
2021/01/12 03:43:40;;;;;;;13.80;11.30;;;;;;;-0.89;59.85;95597.13;5089953;28;20261;-78
2021/01/12 03:46:06;;;;;;;17.00;12.27;;;;;;;-0.85;60.31;95603.59;5087046;28;20642;-79
2021/01/12 03:48:31;;;;;;;15.93;11.20;;;;;;;-0.86;60.23;95585.09;5082046;28;20253;-79
2021/01/12 03:50:59;;;;;;;16.63;11.27;;;;;;;-0.88;59.61;95583.59;5087662;28;20224;-79
2021/01/12 03:53:24;;;;;;;15.47;11.33;;;;;;;-0.96;59.95;95589.16;5089738;28;20196;-79
2021/01/12 03:55:50;;;;;;;14.77;11.27;;;;;;;-0.91;60.44;95584.59;5081687;28;20223;-79
2021/01/12 03:58:18;;;;;;;16.47;11.37;;;;;;;-0.82;60.41;95578.09;5079399;28;20206;-79
2021/01/12 04:00:44;;;;;;;14.73;11.43;;;;;;;-0.86;60.40;95580.03;5083473;28;20204;-79
2021/01/12 04:03:10;;;;;;;17.07;11.77;;;;;;;-0.91;60.02;95582.06;5069068;28;20207;-79
2021/01/12 04:05:38;;;;;;;15.83;11.93;;;;;;;-0.99;60.58;95578.47;5073050;28;20195;-80
2021/01/12 04:08:08;;;;;;;15.97;11.33;;;;;;;-1.00;60.82;95581.91;5080827;28;20242;-79
2021/01/12 04:10:34;;;;;;;14.23;11.03;;;;;;;-0.98;60.90;95580.91;5072789;28;20196;-79
2021/01/12 04:13:01;;;;;;;15.57;11.60;;;;;;;-1.03;61.31;95572.81;5089557;28;20211;-79
2021/01/12 04:15:27;;;;;;;15.60;11.73;;;;;;;-1.00;60.69;95565.03;5083265;28;20221;-78
2021/01/12 04:17:53;;;;;;;15.30;11.40;;;;;;;-0.93;60.65;95558.63;5075213;28;20234;-79
2021/01/12 04:20:19;;;;;;;14.43;11.33;;;;;;;-0.88;60.86;95550.72;5088700;28;20220;-79
2021/01/12 04:22:45;;;;;;;14.50;11.30;;;;;;;-0.90;60.28;95539.91;5073668;28;20211;-79
2021/01/12 04:25:13;;;;;;;14.17;10.97;;;;;;;-0.93;60.20;95540.94;5076377;28;20188;-79
2021/01/12 04:27:39;;;;;;;12.23;10.07;;;;;;;-0.97;60.19;95533.69;5089391;28;20299;-79
2021/01/12 04:30:06;;;;;;;13.50;9.87;;;;;;;-0.96;60.52;95533.56;5074976;28;20714;-79
2021/01/12 04:32:32;;;;;;;11.53;9.23;;;;;;;-1.02;60.04;95525.63;5093506;28;20204;-79
2021/01/12 04:34:58;;;;;;;13.50;9.93;;;;;;;-1.00;60.12;95531.38;5091654;28;20200;-79
2021/01/12 04:37:24;;;;;;;13.27;9.47;;;;;;;-1.11;60.08;95514.44;5072487;28;20244;-79
2021/01/12 04:39:50;;;;;;;14.63;10.30;;;;;;;-1.04;60.43;95515.63;5072954;28;20205;-79
2021/01/12 04:42:17;;;;;;;12.27;9.70;;;;;;;-0.96;60.58;95513.34;5092090;28;20221;-79
2021/01/12 04:44:43;;;;;;;13.50;10.10;;;;;;;-0.96;60.85;95515.88;5092925;28;20678;-80
2021/01/12 04:47:10;;;;;;;13.97;9.70;;;;;;;-0.89;60.78;95508.69;5078914;28;20208;-79
2021/01/12 04:49:36;;;;;;;12.43;9.47;;;;;;;-0.97;60.66;95516.00;5093044;28;20198;-80
2021/01/12 04:52:03;;;;;;;13.60;10.47;;;;;;;-1.02;61.06;95513.81;5076712;28;20255;-79
2021/01/12 04:54:32;;;;;;;13.87;10.70;;;;;;;-0.97;61.89;95508.44;5072683;28;20204;-79
2021/01/12 04:56:59;;;;;;;12.40;9.27;;;;;;;-0.91;61.94;95510.50;5074126;28;20281;-79
2021/01/12 04:59:29;;;;;;;13.67;10.47;;;;;;;-0.86;62.18;95513.53;5077276;28;20630;-79
2021/01/12 05:01:56;;;;;;;14.67;10.93;;;;;;;-0.85;61.91;95507.56;5092710;28;20579;-79
2021/01/12 05:04:22;;;;;;;15.40;10.90;;;;;;;-0.81;62.25;95512.28;5085802;28;20219;-79
2021/01/12 05:06:48;;;;;;;15.33;11.20;;;;;;;-0.85;62.58;95515.13;5079608;28;20222;-79
2021/01/12 05:09:19;;;;;;;14.70;10.87;;;;;;;-0.78;62.13;95504.50;5092166;28;20290;-79
2021/01/12 05:11:46;;;;;;;16.50;10.63;;;;;;;-0.67;62.34;95505.44;5075458;28;20204;-80
2021/01/12 05:14:15;;;;;;;14.13;11.00;;;;;;;-0.58;62.13;95492.16;5081677;28;20210;-79
2021/01/12 05:16:48;;;;;;;13.70;10.73;;;;;;;-0.52;61.85;95496.75;5092282;28;20895;-79
2021/01/12 05:19:19;;;;;;;12.93;10.20;;;;;;;-0.55;61.54;95492.72;5082382;28;20203;-79
2021/01/12 05:21:46;;;;;;;14.90;11.67;;;;;;;-0.66;61.53;95485.09;5087175;28;20290;-79
2021/01/12 05:24:12;;;;;;;13.53;10.90;;;;;;;-0.68;61.51;95479.34;5082759;28;20320;-79
2021/01/12 05:26:38;;;;;;;13.67;10.93;;;;;;;-0.65;61.74;95483.38;5071211;28;20243;-79
2021/01/12 05:29:06;;;;;;;12.87;10.60;;;;;;;-0.67;61.51;95491.06;5078221;28;20192;-79
2021/01/12 05:31:33;;;;;;;15.53;11.17;;;;;;;-0.67;61.79;95487.75;5076925;28;20192;-79
2021/01/12 05:34:04;;;;;;;14.60;11.10;;;;;;;-0.66;61.79;95481.78;5076097;28;20200;-79
2021/01/12 05:36:30;;;;;;;14.83;10.80;;;;;;;-0.70;61.77;95481.19;5091401;28;20216;-79
2021/01/12 05:38:59;;;;;;;13.53;10.30;;;;;;;-0.67;61.84;95472.56;5087389;28;20221;-78
2021/01/12 05:41:26;;;;;;;12.93;10.10;;;;;;;-0.61;61.25;95472.94;5079133;28;20599;-78
2021/01/12 05:43:52;;;;;;;14.30;10.80;;;;;;;-0.60;60.95;95471.22;5078791;28;20639;-78
2021/01/12 05:46:18;;;;;;;17.37;10.80;;;;;;;-0.66;61.19;95459.81;5077632;28;20224;-78
2021/01/12 05:48:46;;;;;;;15.10;9.90;;;;;;;-0.60;60.94;95461.91;5075785;28;20228;-78
2021/01/12 05:51:14;;;;;;;14.83;10.73;;;;;;;-0.64;61.13;95452.94;5076445;28;20197;-78
2021/01/12 05:54:09;;;;;;;13.17;10.70;;;;;;;-0.63;61.25;95444.44;5076466;28;20255;-78
2021/01/12 05:56:37;;;;;;;13.97;9.87;;;;;;;-0.64;61.56;95439.50;5075856;28;20227;-79
2021/01/12 05:59:15;;;;;;;13.70;9.83;;;;;;;-0.65;61.82;95448.81;5084353;28;20204;-78
2021/01/12 06:01:47;;;;;;;14.77;9.97;;;;;;;-0.64;61.97;95442.03;5072944;28;20205;-78
2021/01/12 06:04:14;;;;;;;12.80;9.67;;;;;;;-0.64;62.29;95445.34;5083214;28;20810;-78
2021/01/12 06:06:42;;;;;;;12.93;9.80;;;;;;;-0.69;63.03;95439.81;5079702;28;20286;-78
2021/01/12 06:09:10;;;;;;;12.70;9.83;;;;;;;-0.68;63.55;95433.84;5079365;28;20196;-79
2021/01/12 06:11:37;;;;;;;11.60;9.67;;;;;;;-0.70;63.96;95430.63;5085187;28;20192;-78
2021/01/12 06:14:10;;;;;;;13.40;10.03;;;;;;;-0.66;64.70;95432.03;5087825;28;20207;-78
2021/01/12 06:36:51;;;;;;;8.93;6.93;;;;;;;-0.49;69.42;95383.53;4758279;29;20988;-79
2021/01/12 07:04:46;;;;;;;6.43;4.53;;;;;;;-0.12;72.02;95376.53;4874728;29;20199;-79
2021/01/12 07:08:06;;;;;;;5.83;4.97;;;;;;;-0.09;72.02;95358.59;4848934;29;20881;-78
2021/01/12 07:18:25;;;;;;;6.30;4.67;;;;;;;0.10;71.83;95352.91;4927638;29;20700;-78
2021/01/12 07:21:29;;;;;;;8.20;5.50;;;;;;;0.15;72.02;95350.03;4911302;29;20224;-77
2021/01/12 07:27:33;;;;;;;4.13;3.50;;;;;;;0.18;72.43;95348.06;5009098;23;20241;-78
2021/01/12 07:50:22;;;;;;;4.20;3.33;;;;;;;0.61;73.22;95332.00;4896499;29;20216;-78
2021/01/12 08:19:11;;;;;;;2.83;2.53;;;;;;;1.03;72.15;95285.47;4892609;29;20708;-78
2021/01/12 08:36:20;;;;;;;3.10;2.60;;;;;;;1.32;71.79;95283.09;4891843;29;20365;-78
2021/01/12 08:38:53;;;;;;;3.07;2.77;;;;;;;1.34;71.72;95272.81;4958921;28;20210;-78
2021/01/12 08:41:20;;;;;;;3.27;2.50;;;;;;;1.41;71.40;95268.81;5032437;28;20221;-79
2021/01/12 08:43:51;;;;;;;2.70;2.23;;;;;;;1.52;71.39;95280.63;5031025;28;20198;-78
2021/01/12 08:50:37;;;;;;;2.47;2.00;;;;;;;1.57;71.65;95274.22;4937106;29;20701;-78
2021/01/12 09:04:32;;;;;;;2.20;2.00;;;;;;;1.86;71.78;95238.75;4886107;29;20222;-77
2021/01/12 09:07:33;;;;;;;;;;;;;;;;;;;;;
2021/01/12 09:10:10;;;;;;;2.60;2.03;;;;;;;1.96;71.55;95234.50;4891036;29;20217;-78
2021/01/12 09:13:11;;;;;;;1.63;1.53;;;;;;;1.96;71.96;95237.03;4919192;29;20209;-78
2021/01/12 09:19:40;;;;;;;2.73;1.97;;;;;;;2.13;71.10;95235.56;4916524;29;20210;-78
2021/01/12 09:28:35;;;;;;;2.50;2.10;;;;;;;2.28;70.55;95219.00;5052793;23;20770;-77
2021/01/12 09:31:21;;;;;;;1.53;1.43;;;;;;;2.37;70.36;95212.28;5049919;28;20649;-77
2021/01/12 09:33:59;;;;;;;1.60;1.47;;;;;;;2.35;70.18;95198.94;5041769;28;20190;-78
2021/01/12 09:36:36;;;;;;;1.40;1.30;;;;;;;2.36;70.44;95198.78;5051207;23;20242;-78
2021/01/12 09:40:01;;;;;;;;;;;;;;;;;;;;;
2021/01/12 09:45:56;;;;;;;2.10;1.70;;;;;;;2.46;69.95;95198.78;4993252;28;20244;-77
2021/01/12 09:52:26;;;;;;;;;;;;;;;;;;;;;
2021/01/12 09:54:55;;;;;;;1.53;1.40;;;;;;;2.82;68.86;95183.72;5000614;28;20194;-77
2021/01/12 10:07:01;;;;;;;2.10;1.50;;;;;;;2.85;71.62;95196.16;4948599;28;20312;-78
2021/01/12 10:09:32;;;;;;;1.60;1.50;;;;;;;2.86;72.68;95185.06;4945705;29;20601;-78
2021/01/12 10:12:21;;;;;;;1.50;1.40;;;;;;;2.81;73.98;95177.03;5028289;28;20194;-78
2021/01/12 10:15:44;;;;;;;;;;;;;;;;;;;;;
2021/01/12 10:18:40;;;;;;;3.00;1.60;;;;;;;2.76;76.45;95172.38;5012556;28;20201;-79
2021/01/12 10:21:14;;;;;;;1.70;1.60;;;;;;;2.73;77.32;95170.09;5024181;28;20293;-77
2021/01/12 10:24:22;;;;;;;2.60;1.40;;;;;;;2.77;78.10;95173.97;5022504;28;20237;-79
2021/01/12 10:33:56;;;;;;;2.97;1.30;;;;;;;2.72;82.07;95161.66;4904700;28;20232;-79
2021/01/12 10:36:38;;;;;;;1.53;1.43;;;;;;;2.67;84.21;95176.56;5027502;28;20709;-78
2021/01/12 10:39:16;;;;;;;1.50;1.37;;;;;;;2.56;87.24;95163.19;5027467;28;20260;-78
2021/01/12 10:41:48;;;;;;;1.90;1.40;;;;;;;2.47;89.44;95157.22;5027266;28;20273;-78
2021/01/12 10:51:17;;;;;;;1.40;1.30;;;;;;;2.41;94.07;95140.75;4956979;28;20617;-78
2021/01/12 10:57:22;;;;;;;1.57;1.33;;;;;;;2.31;96.19;95124.72;4940029;28;20232;-78
2021/01/12 11:00:15;;;;;;;1.40;1.30;;;;;;;2.29;96.50;95123.28;4963667;28;20224;-78
2021/01/12 11:03:04;;;;;;;1.40;1.20;;;;;;;2.26;97.58;95095.63;4998980;28;20201;-78
2021/01/12 11:05:55;;;;;;;1.40;1.20;;;;;;;2.24;97.02;95112.75;5025992;28;20294;-78
2021/01/12 11:08:22;;;;;;;2.90;1.30;;;;;;;2.23;97.42;95099.25;5027968;28;20285;-78
2021/01/12 11:11:34;;;;;;;2.10;1.43;;;;;;;2.23;98.05;95104.31;5027855;28;20232;-78
2021/01/12 11:14:18;;;;;;;1.30;1.20;;;;;;;2.16;98.32;95077.06;5014610;28;20225;-78
2021/01/12 11:17:17;;;;;;;1.67;1.20;;;;;;;2.23;98.36;95073.03;5028393;28;20253;-78
2021/01/12 11:19:43;;;;;;;1.87;1.37;;;;;;;2.24;97.74;95072.91;5020167;28;20264;-78
2021/01/12 11:22:09;;;;;;;2.47;1.30;;;;;;;2.17;97.83;95076.94;5026734;28;20212;-80
2021/01/12 11:24:38;;;;;;;1.20;1.10;;;;;;;2.19;98.28;95074.25;5018588;28;20272;-78
2021/01/12 11:27:05;;;;;;;2.60;1.47;;;;;;;2.23;98.36;95071.31;5027582;28;20233;-79
2021/01/12 11:29:37;;;;;;;1.37;1.27;;;;;;;2.31;98.03;95052.84;5027070;28;20198;-78
2021/01/12 11:32:03;;;;;;;1.30;1.20;;;;;;;2.23;98.13;95061.16;5020283;28;20195;-78
2021/01/12 11:34:29;;;;;;;2.07;1.50;;;;;;;2.25;98.75;95059.28;5027747;28;20209;-77
2021/01/12 11:46:16;;;;;;;2.47;1.30;;;;;;;2.28;98.66;95033.59;5046237;28;20323;-78
2021/01/12 11:52:19;;;;;;;1.20;1.10;;;;;;;2.24;98.27;95011.16;4876002;29;20242;-78
2021/01/12 11:58:20;;;;;;;1.57;1.20;;;;;;;2.34;97.42;95016.97;4944034;28;20292;-78
2021/01/12 12:07:21;;;;;;;1.13;1.03;;;;;;;2.30;97.56;95003.78;4946404;29;20810;-77
2021/01/12 12:16:47;;;;;;;1.33;1.20;;;;;;;2.33;97.38;95020.47;4936248;28;20261;-77
2021/01/12 12:26:30;;;;;;;1.40;1.30;;;;;;;2.34;97.90;94999.19;5026573;28;20267;-78
2021/01/12 12:32:50;;;;;;;1.30;1.20;;;;;;;2.31;98.31;95000.28;4907025;28;20205;-78
2021/01/12 12:45:56;;;;;;;1.40;1.30;;;;;;;2.36;98.93;94972.72;4993226;28;20358;-78
2021/01/12 12:52:20;;;;;;;2.23;1.40;;;;;;;2.50;97.38;94968.94;4877817;29;20211;-78
2021/01/12 12:57:53;;;;;;;2.03;1.27;;;;;;;2.36;96.50;94942.25;4947300;28;20231;-80
2021/01/12 13:00:20;;;;;;;1.23;1.13;;;;;;;2.41;96.08;94945.16;4995915;28;20206;-83
2021/01/12 13:02:46;;;;;;;1.30;1.20;;;;;;;2.48;96.37;94949.69;5038640;28;20201;-84
2021/01/12 13:05:13;;;;;;;1.67;1.23;;;;;;;2.51;95.75;94946.84;5036798;28;20946;-84
2021/01/12 13:07:40;;;;;;;1.30;1.20;;;;;;;2.50;96.18;94941.00;5035820;28;20776;-85
2021/01/12 13:10:07;;;;;;;1.23;1.13;;;;;;;2.48;96.11;94922.53;5036987;28;20194;-84
2021/01/12 13:12:34;;;;;;;2.07;1.20;;;;;;;2.47;96.34;94931.09;5034480;28;20194;-84
2021/01/12 13:15:01;;;;;;;1.17;1.13;;;;;;;2.42;96.53;94940.88;5035176;28;20217;-84
2021/01/12 13:17:33;;;;;;;2.40;1.30;;;;;;;2.52;96.84;94925.56;5034166;28;20225;-84
2021/01/12 13:20:04;;;;;;;1.50;1.13;;;;;;;2.52;95.82;94931.44;5034735;28;20205;-84
2021/01/12 13:22:31;;;;;;;1.17;1.07;;;;;;;2.54;95.73;94916.06;5034806;28;20210;-84
2021/01/12 13:24:58;;;;;;;1.23;1.13;;;;;;;2.53;95.90;94925.44;5035858;28;20281;-85
2021/01/12 13:27:27;;;;;;;1.33;1.23;;;;;;;2.58;95.47;94902.94;5035158;28;20214;-82
2021/01/12 13:29:53;;;;;;;1.20;1.10;;;;;;;2.58;95.41;94913.09;5035724;28;20269;-85
2021/01/12 13:32:19;;;;;;;2.13;1.20;;;;;;;2.54;94.71;94906.72;5034811;28;20198;-83
2021/01/12 13:34:45;;;;;;;1.97;1.10;;;;;;;2.52;95.24;94913.66;5034781;28;20276;-82
2021/01/12 13:37:11;;;;;;;1.23;1.13;;;;;;;2.56;95.46;94904.81;5034343;28;20247;-84
2021/01/12 13:39:37;;;;;;;1.13;0.90;;;;;;;2.55;95.37;94923.56;5033941;28;20206;-83
2021/01/12 13:42:05;;;;;;;1.00;0.90;;;;;;;2.55;94.74;94933.72;5034709;28;20369;-85
2021/01/12 13:44:31;;;;;;;1.30;1.10;;;;;;;2.54;95.69;94911.78;5034071;28;20198;-84
2021/01/12 13:46:57;;;;;;;1.60;1.30;;;;;;;2.55;95.43;94895.59;5034414;28;20287;-84
2021/01/12 13:49:24;;;;;;;1.20;1.10;;;;;;;2.51;95.82;94904.44;5026949;28;20207;-84
2021/01/12 13:51:51;;;;;;;1.20;1.10;;;;;;;2.57;95.93;94890.38;5028973;28;20206;-84
2021/01/12 13:54:21;;;;;;;1.47;1.37;;;;;;;2.61;95.08;94896.78;5033443;28;20843;-84
2021/01/12 13:56:57;;;;;;;1.27;1.17;;;;;;;2.61;95.31;94900.13;5036154;28;20286;-83
2021/01/12 13:59:25;;;;;;;2.17;1.20;;;;;;;2.52;96.46;94890.81;5033273;28;20205;-83
2021/01/12 14:01:52;;;;;;;1.30;1.20;;;;;;;2.52;96.81;94887.47;5033151;28;20194;-84
2021/01/12 14:04:19;;;;;;;1.10;1.10;;;;;;;2.57;97.06;94888.63;5033070;28;20205;-83
2021/01/12 14:06:45;;;;;;;1.40;1.30;;;;;;;2.52;97.82;94883.19;5033952;28;20210;-83
2021/01/12 14:09:11;;;;;;;1.30;1.20;;;;;;;2.50;97.86;94887.63;5034317;28;20198;-85
2021/01/12 14:11:39;;;;;;;1.00;1.00;;;;;;;2.60;98.04;94893.44;5034762;28;20186;-84
2021/01/12 14:14:06;;;;;;;1.30;1.10;;;;;;;2.54;98.12;94894.00;5033993;28;20563;-84
2021/01/12 14:16:44;;;;;;;1.00;1.00;;;;;;;2.51;98.68;94899.38;5032866;28;20244;-84
2021/01/12 14:19:13;;;;;;;1.47;1.20;;;;;;;2.46;99.54;94893.94;5034092;28;20206;-84
2021/01/12 14:21:47;;;;;;;1.67;1.00;;;;;;;2.54;99.50;94893.19;5032496;28;20210;-83
2021/01/12 14:24:13;;;;;;;1.47;1.20;;;;;;;2.46;99.69;94893.16;5033219;28;20198;-84
2021/01/12 14:26:39;;;;;;;3.47;1.10;;;;;;;2.50;99.93;94894.47;5033367;28;20221;-85
2021/01/12 14:29:06;;;;;;;1.00;1.00;;;;;;;2.52;99.91;94908.59;5033758;28;20217;-84
2021/01/12 14:31:33;;;;;;;0.90;0.90;;;;;;;2.55;99.91;94897.34;5032080;28;20201;-84
2021/01/12 14:33:59;;;;;;;1.90;1.20;;;;;;;2.53;99.88;94894.94;5032140;28;20202;-83
2021/01/12 14:36:27;;;;;;;1.10;1.10;;;;;;;2.57;100.00;94891.19;5033645;28;20226;-84
2021/01/12 14:39:02;;;;;;;1.30;1.20;;;;;;;2.53;100.00;94900.03;5032921;28;20209;-83
2021/01/12 14:42:09;;;;;;;1.30;1.20;;;;;;;2.49;100.00;94882.69;5032438;28;20194;-86
2021/01/12 14:44:36;;;;;;;1.13;1.03;;;;;;;2.54;100.00;94886.38;5018591;28;20201;-83
2021/01/12 14:47:08;;;;;;;1.20;1.00;;;;;;;2.52;100.00;94895.09;5032971;28;20705;-82
2021/01/12 14:49:34;;;;;;;1.17;0.93;;;;;;;2.46;100.00;94888.06;5032257;28;20194;-84
2021/01/12 14:52:01;;;;;;;2.80;1.00;;;;;;;2.51;100.00;94885.88;5031615;28;20356;-84
2021/01/12 14:54:27;;;;;;;1.13;1.03;;;;;;;2.47;100.00;94884.59;5033408;28;20209;-83
2021/01/12 14:56:53;;;;;;;1.20;1.10;;;;;;;2.55;100.00;94872.72;5034165;28;20323;-84
2021/01/12 14:59:19;;;;;;;1.20;1.00;;;;;;;2.50;100.00;94874.94;5032590;28;20198;-84
2021/01/12 15:01:45;;;;;;;1.30;1.10;;;;;;;2.55;100.00;94871.94;5033124;28;20658;-83
2021/01/12 15:04:12;;;;;;;1.23;1.10;;;;;;;2.58;100.00;94869.91;5032106;28;20202;-85
2021/01/12 15:06:39;;;;;;;2.37;0.90;;;;;;;2.50;100.00;94867.31;5031397;28;20776;-83
2021/01/12 15:09:08;;;;;;;1.17;1.07;;;;;;;2.54;100.00;94867.78;5031072;28;20665;-83
2021/01/12 15:11:35;;;;;;;1.37;1.20;;;;;;;2.50;100.00;94876.69;5031262;28;20659;-83
2021/01/12 15:14:00;;;;;;;1.00;1.00;;;;;;;2.54;100.00;94867.78;5033355;28;20716;-84
2021/01/12 15:16:26;;;;;;;1.83;1.07;;;;;;;2.50;100.00;94871.59;5032872;28;20222;-83
2021/01/12 15:18:52;;;;;;;6.57;3.90;;;;;;;2.56;100.00;94886.25;5032263;28;20198;-84
2021/01/12 15:21:19;;;;;;;2.13;1.00;;;;;;;2.52;100.00;94890.81;5027350;28;20285;-83
2021/01/12 15:23:46;;;;;;;1.30;1.03;;;;;;;2.60;100.00;94872.31;5031378;28;20827;-84
2021/01/12 15:26:13;;;;;;;0.90;0.90;;;;;;;2.56;100.00;94868.44;5032214;28;20218;-84
2021/01/12 15:28:39;;;;;;;1.40;1.30;;;;;;;2.65;100.00;94870.13;5031985;28;20190;-83
2021/01/12 15:31:06;;;;;;;0.90;0.90;;;;;;;2.63;100.00;94877.09;5032788;28;20197;-82
2021/01/12 15:33:32;;;;;;;1.10;1.00;;;;;;;2.69;100.00;94884.16;5030873;28;20713;-85
2021/01/12 15:35:59;;;;;;;0.97;0.97;;;;;;;2.70;100.00;94883.97;5031451;28;20194;-83
2021/01/12 15:38:26;;;;;;;1.83;0.90;;;;;;;2.73;100.00;94878.63;5031055;28;20274;-82
2021/01/12 15:40:52;;;;;;;1.60;1.00;;;;;;;2.73;100.00;94891.31;5032132;28;20205;-83